sensor_id;sensor_type;location;lat;lon;timestamp;pressure;altitude;pressure_sealevel;temperature;humidity
75692;BME280;64307;52.508;6.090;2023-07-16T00:02:22;100723.00;;;17.67;72.66
75692;BME280;64307;52.508;6.090;2023-07-16T00:04:47;100719.63;;;17.60;72.85
75692;BME280;64307;52.508;6.090;2023-07-16T00:07:13;100733.25;;;17.61;73.12
75692;BME280;64307;52.508;6.090;2023-07-16T00:09:38;100725.59;;;17.62;73.28
75692;BME280;64307;52.508;6.090;2023-07-16T00:12:03;100730.75;;;17.51;74.86
75692;BME280;64307;52.508;6.090;2023-07-16T00:14:29;100732.56;;;17.57;75.60
75692;BME280;64307;52.508;6.090;2023-07-16T00:16:54;100730.47;;;17.45;77.89
75692;BME280;64307;52.508;6.090;2023-07-16T00:19:19;100732.94;;;17.43;78.63
75692;BME280;64307;52.508;6.090;2023-07-16T00:21:46;100736.34;;;17.38;79.74
75692;BME280;64307;52.508;6.090;2023-07-16T00:24:12;100738.34;;;17.38;81.07
75692;BME280;64307;52.508;6.090;2023-07-16T00:26:37;100729.75;;;17.29;81.94
75692;BME280;64307;52.508;6.090;2023-07-16T00:29:02;100727.84;;;17.26;83.14
75692;BME280;64307;52.508;6.090;2023-07-16T00:31:28;100728.66;;;17.39;83.30
75692;BME280;64307;52.508;6.090;2023-07-16T00:33:53;100736.75;;;17.53;84.37
75692;BME280;64307;52.508;6.090;2023-07-16T00:36:18;100735.84;;;17.56;83.98
75692;BME280;64307;52.508;6.090;2023-07-16T00:38:44;100722.78;;;17.62;84.15
75692;BME280;64307;52.508;6.090;2023-07-16T00:41:11;100713.66;;;17.58;83.29
75692;BME280;64307;52.508;6.090;2023-07-16T00:43:36;100735.28;;;17.73;82.70
75692;BME280;64307;52.508;6.090;2023-07-16T00:46:01;100729.44;;;17.68;82.57
75692;BME280;64307;52.508;6.090;2023-07-16T00:48:28;100744.00;;;17.79;81.07
75692;BME280;64307;52.508;6.090;2023-07-16T00:50:55;100740.84;;;17.77;80.90
75692;BME280;64307;52.508;6.090;2023-07-16T00:53:21;100737.56;;;17.78;78.96
75692;BME280;64307;52.508;6.090;2023-07-16T00:55:46;100736.34;;;17.79;79.31
75692;BME280;64307;52.508;6.090;2023-07-16T00:58:12;100738.34;;;17.79;79.11
75692;BME280;64307;52.508;6.090;2023-07-16T01:00:38;100733.53;;;17.79;77.02
75692;BME280;64307;52.508;6.090;2023-07-16T01:03:13;100722.34;;;17.76;76.14
75692;BME280;64307;52.508;6.090;2023-07-16T01:08:10;100743.19;;;17.78;75.20
75692;BME280;64307;52.508;6.090;2023-07-16T01:10:40;100741.84;;;17.70;75.61
75692;BME280;64307;52.508;6.090;2023-07-16T01:13:07;100747.59;;;17.79;75.11
75692;BME280;64307;52.508;6.090;2023-07-16T01:15:32;100738.59;;;17.84;72.94
75692;BME280;64307;52.508;6.090;2023-07-16T01:17:57;100749.66;;;17.91;71.15
75692;BME280;64307;52.508;6.090;2023-07-16T01:20:23;100733.06;;;17.93;69.44
75692;BME280;64307;52.508;6.090;2023-07-16T01:23:08;100732.50;;;17.98;70.17
75692;BME280;64307;52.508;6.090;2023-07-16T01:26:00;100737.13;;;17.92;69.57
75692;BME280;64307;52.508;6.090;2023-07-16T01:28:49;100742.88;;;17.89;69.79
75692;BME280;64307;52.508;6.090;2023-07-16T01:31:19;100738.03;;;17.89;68.92
75692;BME280;64307;52.508;6.090;2023-07-16T01:33:49;100741.41;;;17.84;68.71
75692;BME280;64307;52.508;6.090;2023-07-16T01:36:16;100734.19;;;17.83;69.24
75692;BME280;64307;52.508;6.090;2023-07-16T01:38:42;100733.94;;;17.78;69.18
75692;BME280;64307;52.508;6.090;2023-07-16T01:41:07;100738.34;;;17.79;68.98
75692;BME280;64307;52.508;6.090;2023-07-16T01:43:32;100744.34;;;17.81;69.82
75692;BME280;64307;52.508;6.090;2023-07-16T01:45:58;100739.03;;;17.70;70.02
75692;BME280;64307;52.508;6.090;2023-07-16T01:51:10;100729.44;;;17.68;69.11
75692;BME280;64307;52.508;6.090;2023-07-16T01:53:39;100740.69;;;17.68;70.07
75692;BME280;64307;52.508;6.090;2023-07-16T01:56:04;100733.50;;;17.67;68.96
75692;BME280;64307;52.508;6.090;2023-07-16T01:58:29;100736.31;;;17.67;68.55
75692;BME280;64307;52.508;6.090;2023-07-16T02:00:54;100719.47;;;17.51;70.26
75692;BME280;64307;52.508;6.090;2023-07-16T02:03:20;100730.19;;;17.56;70.46
75692;BME280;64307;52.508;6.090;2023-07-16T02:05:45;100734.00;;;17.49;70.15
75692;BME280;64307;52.508;6.090;2023-07-16T02:08:10;100738.75;;;17.52;69.89
75692;BME280;64307;52.508;6.090;2023-07-16T02:10:36;100734.44;;;17.48;70.93
75692;BME280;64307;52.508;6.090;2023-07-16T02:13:01;100724.84;;;17.45;70.63
75692;BME280;64307;52.508;6.090;2023-07-16T02:15:26;100721.47;;;17.38;71.41
75692;BME280;64307;52.508;6.090;2023-07-16T02:17:52;100721.66;;;17.31;71.09
75692;BME280;64307;52.508;6.090;2023-07-16T02:20:17;100736.88;;;17.33;71.65
75692;BME280;64307;52.508;6.090;2023-07-16T02:22:42;100730.66;;;17.26;71.47
75692;BME280;64307;52.508;6.090;2023-07-16T02:25:08;100736.97;;;17.30;71.29
75692;BME280;64307;52.508;6.090;2023-07-16T02:27:33;100733.94;;;17.37;70.83
75692;BME280;64307;52.508;6.090;2023-07-16T02:29:58;100726.06;;;17.32;70.83
75692;BME280;64307;52.508;6.090;2023-07-16T02:32:23;100733.47;;;17.26;71.94
75692;BME280;64307;52.508;6.090;2023-07-16T02:34:49;100730.50;;;17.16;72.39
75692;BME280;64307;52.508;6.090;2023-07-16T02:37:14;100727.56;;;17.20;71.86
75692;BME280;64307;52.508;6.090;2023-07-16T02:39:41;100741.91;;;17.26;71.27
75692;BME280;64307;52.508;6.090;2023-07-16T02:42:06;100732.78;;;17.22;71.32
75692;BME280;64307;52.508;6.090;2023-07-16T02:44:32;100740.66;;;17.27;71.34
75692;BME280;64307;52.508;6.090;2023-07-16T02:46:57;100737.81;;;17.14;72.10
75692;BME280;64307;52.508;6.090;2023-07-16T02:49:22;100743.69;;;17.19;72.62
75692;BME280;64307;52.508;6.090;2023-07-16T02:51:48;100735.66;;;17.05;72.83
75692;BME280;64307;52.508;6.090;2023-07-16T02:54:13;100743.88;;;17.12;73.00
75692;BME280;64307;52.508;6.090;2023-07-16T02:56:39;100740.53;;;17.17;71.64
75692;BME280;64307;52.508;6.090;2023-07-16T02:59:04;100741.53;;;17.11;72.58
75692;BME280;64307;52.508;6.090;2023-07-16T03:01:29;100737.81;;;17.14;72.00
75692;BME280;64307;52.508;6.090;2023-07-16T03:03:54;100743.53;;;17.10;72.00
75692;BME280;64307;52.508;6.090;2023-07-16T03:06:20;100738.66;;;16.98;73.18
75692;BME280;64307;52.508;6.090;2023-07-16T03:08:45;100750.16;;;17.04;73.91
75692;BME280;64307;52.508;6.090;2023-07-16T03:11:12;100731.69;;;17.03;73.34
75692;BME280;64307;52.508;6.090;2023-07-16T03:13:37;100754.00;;;17.10;73.37
75692;BME280;64307;52.508;6.090;2023-07-16T03:16:03;100755.59;;;17.11;73.35
75692;BME280;64307;52.508;6.090;2023-07-16T03:18:29;100748.47;;;17.06;73.48
75692;BME280;64307;52.508;6.090;2023-07-16T03:20:55;100749.16;;;17.10;73.43
75692;BME280;64307;52.508;6.090;2023-07-16T03:23:21;100737.06;;;16.97;73.94
75692;BME280;64307;52.508;6.090;2023-07-16T03:25:46;100750.59;;;17.02;73.93
75692;BME280;64307;52.508;6.090;2023-07-16T03:28:11;100746.41;;;16.94;73.92
75692;BME280;64307;52.508;6.090;2023-07-16T03:30:36;100760.63;;;17.03;74.50
75692;BME280;64307;52.508;6.090;2023-07-16T03:33:03;100757.09;;;16.99;74.24
75692;BME280;64307;52.508;6.090;2023-07-16T03:35:28;100755.88;;;17.00;74.97
75692;BME280;64307;52.508;6.090;2023-07-16T03:37:54;100756.84;;;16.94;74.89
75692;BME280;64307;52.508;6.090;2023-07-16T03:40:24;100766.97;;;16.91;75.21
75692;BME280;64307;52.508;6.090;2023-07-16T03:42:50;100756.06;;;16.93;75.74
75692;BME280;64307;52.508;6.090;2023-07-16T03:45:16;100760.47;;;16.94;75.35
75692;BME280;64307;52.508;6.090;2023-07-16T03:47:42;100757.66;;;16.94;75.84
75692;BME280;64307;52.508;6.090;2023-07-16T03:50:07;100775.22;;;16.98;75.85
75692;BME280;64307;52.508;6.090;2023-07-16T03:52:33;100768.22;;;16.90;75.97
75692;BME280;64307;52.508;6.090;2023-07-16T03:54:58;100779.34;;;16.94;76.47
75692;BME280;64307;52.508;6.090;2023-07-16T03:57:24;100777.78;;;16.93;76.37
75692;BME280;64307;52.508;6.090;2023-07-16T03:59:49;100764.59;;;16.90;75.76
75692;BME280;64307;52.508;6.090;2023-07-16T04:02:14;100761.78;;;16.90;76.33
75692;BME280;64307;52.508;6.090;2023-07-16T04:04:40;100767.88;;;16.88;75.80
75692;BME280;64307;52.508;6.090;2023-07-16T04:07:05;100775.22;;;16.98;76.34
75692;BME280;64307;52.508;6.090;2023-07-16T04:09:32;100773.63;;;16.97;76.33
75692;BME280;64307;52.508;6.090;2023-07-16T04:11:57;100775.31;;;16.95;75.80
75692;BME280;64307;52.508;6.090;2023-07-16T04:14:23;100784.53;;;17.11;75.45
75692;BME280;64307;52.508;6.090;2023-07-16T04:16:48;100774.84;;;17.12;74.40
75692;BME280;64307;52.508;6.090;2023-07-16T04:19:13;100791.44;;;17.23;74.71
75692;BME280;64307;52.508;6.090;2023-07-16T04:21:38;100784.13;;;17.26;74.70
75692;BME280;64307;52.508;6.090;2023-07-16T04:24:05;100794.59;;;17.25;74.83
75692;BME280;64307;52.508;6.090;2023-07-16T04:26:31;100783.25;;;17.29;74.85
75692;BME280;64307;52.508;6.090;2023-07-16T04:28:56;100785.22;;;17.73;73.17
75692;BME280;64307;52.508;6.090;2023-07-16T04:31:22;100783.41;;;17.66;72.99
75692;BME280;64307;52.508;6.090;2023-07-16T04:33:47;100785.38;;;17.53;73.73
75692;BME280;64307;52.508;6.090;2023-07-16T04:36:13;100787.44;;;17.53;73.58
75692;BME280;64307;52.508;6.090;2023-07-16T04:38:38;100788.53;;;17.55;72.72
75692;BME280;64307;52.508;6.090;2023-07-16T04:41:03;100799.50;;;17.66;72.96
75692;BME280;64307;52.508;6.090;2023-07-16T04:43:28;100796.84;;;17.75;72.74
75692;BME280;64307;52.508;6.090;2023-07-16T04:45:54;100806.47;;;18.15;71.42
75692;BME280;64307;52.508;6.090;2023-07-16T04:48:19;100799.16;;;18.18;71.35
75692;BME280;64307;52.508;6.090;2023-07-16T04:50:44;100805.59;;;18.18;70.76
75692;BME280;64307;52.508;6.090;2023-07-16T04:53:10;100807.34;;;17.87;71.89
75692;BME280;64307;52.508;6.090;2023-07-16T04:55:38;100809.13;;;20.27;63.92
75692;BME280;64307;52.508;6.090;2023-07-16T04:58:05;100801.75;;;22.89;55.90
75692;BME280;64307;52.508;6.090;2023-07-16T05:00:34;100823.16;;;23.23;54.07
75692;BME280;64307;52.508;6.090;2023-07-16T05:03:00;100814.88;;;24.30;50.37
75692;BME280;64307;52.508;6.090;2023-07-16T05:05:25;100823.91;;;24.00;50.93
75692;BME280;64307;52.508;6.090;2023-07-16T05:07:52;100825.31;;;24.19;49.29
75692;BME280;64307;52.508;6.090;2023-07-16T05:10:17;100838.44;;;23.25;51.54
75692;BME280;64307;52.508;6.090;2023-07-16T05:12:42;100834.50;;;23.85;51.30
75692;BME280;64307;52.508;6.090;2023-07-16T05:15:08;100835.47;;;23.96;50.38
75692;BME280;64307;52.508;6.090;2023-07-16T05:17:33;100836.75;;;24.54;49.61
75692;BME280;64307;52.508;6.090;2023-07-16T05:19:59;100814.41;;;24.32;49.41
75692;BME280;64307;52.508;6.090;2023-07-16T05:22:24;100834.63;;;25.18;47.08
75692;BME280;64307;52.508;6.090;2023-07-16T05:24:49;100838.06;;;25.62;46.14
75692;BME280;64307;52.508;6.090;2023-07-16T05:27:15;100827.97;;;26.44;45.04
75692;BME280;64307;52.508;6.090;2023-07-16T05:29:40;100847.63;;;26.62;44.46
75692;BME280;64307;52.508;6.090;2023-07-16T05:32:05;100838.81;;;26.65;43.29
75692;BME280;64307;52.508;6.090;2023-07-16T05:34:31;100836.09;;;26.51;43.24
75692;BME280;64307;52.508;6.090;2023-07-16T05:36:56;100841.84;;;28.05;40.86
75692;BME280;64307;52.508;6.090;2023-07-16T05:39:22;100847.84;;;26.95;42.58
75692;BME280;64307;52.508;6.090;2023-07-16T05:41:47;100845.78;;;28.30;40.20
75692;BME280;64307;52.508;6.090;2023-07-16T05:44:12;100840.56;;;28.12;39.87
75692;BME280;64307;52.508;6.090;2023-07-16T05:46:38;100839.06;;;26.67;41.78
75692;BME280;64307;52.508;6.090;2023-07-16T05:49:03;100857.78;;;27.47;40.19
75692;BME280;64307;52.508;6.090;2023-07-16T05:51:28;100849.00;;;27.57;40.66
75692;BME280;64307;52.508;6.090;2023-07-16T05:53:54;100861.03;;;27.88;38.74
75692;BME280;64307;52.508;6.090;2023-07-16T05:56:19;100852.53;;;28.16;39.09
75692;BME280;64307;52.508;6.090;2023-07-16T05:58:44;100860.09;;;28.35;39.79
75692;BME280;64307;52.508;6.090;2023-07-16T06:01:10;100853.25;;;29.10;37.16
75692;BME280;64307;52.508;6.090;2023-07-16T06:03:35;100866.09;;;28.87;38.05
75692;BME280;64307;52.508;6.090;2023-07-16T06:06:00;100866.09;;;28.32;37.76
75692;BME280;64307;52.508;6.090;2023-07-16T06:08:25;100857.88;;;29.47;36.25
75692;BME280;64307;52.508;6.090;2023-07-16T06:10:51;100865.81;;;28.24;39.57
75692;BME280;64307;52.508;6.090;2023-07-16T06:13:17;100875.56;;;29.56;36.49
75692;BME280;64307;52.508;6.090;2023-07-16T06:15:43;100872.63;;;29.78;35.39
75692;BME280;64307;52.508;6.090;2023-07-16T06:18:09;100868.19;;;28.48;37.74
75692;BME280;64307;52.508;6.090;2023-07-16T06:20:35;100859.81;;;29.05;36.71
75692;BME280;64307;52.508;6.090;2023-07-16T06:23:00;100879.00;;;27.94;38.74
75692;BME280;64307;52.508;6.090;2023-07-16T06:25:25;100876.97;;;29.39;35.77
75692;BME280;64307;52.508;6.090;2023-07-16T06:27:51;100889.56;;;29.87;35.63
75692;BME280;64307;52.508;6.090;2023-07-16T06:30:16;100902.06;;;28.88;37.04
75692;BME280;64307;52.508;6.090;2023-07-16T06:32:42;100887.16;;;28.01;38.29
75692;BME280;64307;52.508;6.090;2023-07-16T06:35:08;100899.56;;;29.59;36.18
75692;BME280;64307;52.508;6.090;2023-07-16T06:37:34;100898.19;;;28.75;36.84
75692;BME280;64307;52.508;6.090;2023-07-16T06:39:59;100892.88;;;28.12;37.68
75692;BME280;64307;52.508;6.090;2023-07-16T06:42:24;100896.34;;;29.84;35.53
75692;BME280;64307;52.508;6.090;2023-07-16T06:44:51;100898.34;;;29.43;35.44
75692;BME280;64307;52.508;6.090;2023-07-16T06:47:16;100894.25;;;28.56;36.66
75692;BME280;64307;52.508;6.090;2023-07-16T06:49:44;100901.78;;;29.14;35.40
75692;BME280;64307;52.508;6.090;2023-07-16T06:52:19;100882.63;;;29.55;36.80
75692;BME280;64307;52.508;6.090;2023-07-16T06:54:44;100904.41;;;29.01;36.70
75692;BME280;64307;52.508;6.090;2023-07-16T06:57:10;100905.59;;;29.55;36.40
75692;BME280;64307;52.508;6.090;2023-07-16T06:59:35;100873.28;;;29.44;35.40
75692;BME280;64307;52.508;6.090;2023-07-16T07:02:01;100885.63;;;29.22;35.44
75692;BME280;64307;52.508;6.090;2023-07-16T07:04:26;100895.41;;;27.94;37.23
75692;BME280;64307;52.508;6.090;2023-07-16T07:06:51;100896.13;;;27.72;38.29
75692;BME280;64307;52.508;6.090;2023-07-16T07:09:16;100913.78;;;30.44;33.91
75692;BME280;64307;52.508;6.090;2023-07-16T07:11:43;100911.41;;;29.33;35.88
75692;BME280;64307;52.508;6.090;2023-07-16T07:14:09;100910.63;;;28.33;37.21
75692;BME280;64307;52.508;6.090;2023-07-16T07:16:34;100902.06;;;28.39;37.69
75692;BME280;64307;52.508;6.090;2023-07-16T07:19:00;100906.78;;;28.69;37.63
75692;BME280;64307;52.508;6.090;2023-07-16T07:21:25;100912.56;;;30.63;33.76
75692;BME280;64307;52.508;6.090;2023-07-16T07:23:50;100905.72;;;28.78;36.77
75692;BME280;64307;52.508;6.090;2023-07-16T07:26:16;100914.81;;;28.43;36.29
75692;BME280;64307;52.508;6.090;2023-07-16T07:28:41;100912.47;;;29.25;36.12
75692;BME280;64307;52.508;6.090;2023-07-16T07:31:07;100927.63;;;28.81;37.04
75692;BME280;64307;52.508;6.090;2023-07-16T07:33:32;100917.09;;;28.11;37.93
75692;BME280;64307;52.508;6.090;2023-07-16T07:35:58;100916.63;;;29.35;35.96
75692;BME280;64307;52.508;6.090;2023-07-16T07:38:23;100919.56;;;30.38;34.89
75692;BME280;64307;52.508;6.090;2023-07-16T07:40:48;100913.31;;;28.59;37.22
75692;BME280;64307;52.508;6.090;2023-07-16T07:43:14;100917.22;;;27.32;39.22
75692;BME280;64307;52.508;6.090;2023-07-16T07:45:39;100922.16;;;28.94;36.88
75692;BME280;64307;52.508;6.090;2023-07-16T07:48:05;100929.50;;;27.92;38.80
75692;BME280;64307;52.508;6.090;2023-07-16T07:50:31;100929.50;;;26.96;39.33
75692;BME280;64307;52.508;6.090;2023-07-16T07:52:56;100950.88;;;26.49;40.93
75692;BME280;64307;52.508;6.090;2023-07-16T07:55:21;100951.31;;;25.22;44.86
75692;BME280;64307;52.508;6.090;2023-07-16T07:57:46;100963.53;;;23.96;46.58
75692;BME280;64307;52.508;6.090;2023-07-16T08:00:12;100945.25;;;23.50;49.48
75692;BME280;64307;52.508;6.090;2023-07-16T08:02:38;100968.50;;;23.87;48.12
75692;BME280;64307;52.508;6.090;2023-07-16T08:05:04;100961.13;;;23.24;49.89
75692;BME280;64307;52.508;6.090;2023-07-16T08:07:30;100959.06;;;22.23;51.30
75692;BME280;64307;52.508;6.090;2023-07-16T08:09:55;100966.63;;;22.17;52.37
75692;BME280;64307;52.508;6.090;2023-07-16T08:12:20;100978.00;;;22.17;53.10
75692;BME280;64307;52.508;6.090;2023-07-16T08:14:45;100970.38;;;22.59;51.37
75692;BME280;64307;52.508;6.090;2023-07-16T08:17:11;100979.44;;;24.41;47.42
75692;BME280;64307;52.508;6.090;2023-07-16T08:19:37;100978.25;;;24.33;48.78
75692;BME280;64307;52.508;6.090;2023-07-16T08:22:02;100979.09;;;23.63;49.84
75692;BME280;64307;52.508;6.090;2023-07-16T08:24:28;100975.56;;;23.11;50.32
75692;BME280;64307;52.508;6.090;2023-07-16T08:26:53;100985.81;;;22.76;51.10
75692;BME280;64307;52.508;6.090;2023-07-16T08:29:20;100983.75;;;24.22;48.71
75692;BME280;64307;52.508;6.090;2023-07-16T08:31:45;100983.34;;;24.29;49.05
75692;BME280;64307;52.508;6.090;2023-07-16T08:34:10;100986.78;;;23.15;50.54
75692;BME280;64307;52.508;6.090;2023-07-16T08:36:36;100993.00;;;23.60;50.28
75692;BME280;64307;52.508;6.090;2023-07-16T08:39:03;100988.06;;;23.05;52.31
75692;BME280;64307;52.508;6.090;2023-07-16T08:41:28;100998.25;;;22.78;51.96
75692;BME280;64307;52.508;6.090;2023-07-16T08:43:54;100998.28;;;22.69;52.40
75692;BME280;64307;52.508;6.090;2023-07-16T08:46:20;101007.88;;;22.54;53.73
75692;BME280;64307;52.508;6.090;2023-07-16T08:48:45;101004.78;;;22.16;53.85
75692;BME280;64307;52.508;6.090;2023-07-16T08:51:14;101013.28;;;22.25;54.07
75692;BME280;64307;52.508;6.090;2023-07-16T08:53:39;101015.81;;;22.59;53.51
75692;BME280;64307;52.508;6.090;2023-07-16T08:56:05;101014.38;;;23.14;51.08
75692;BME280;64307;52.508;6.090;2023-07-16T08:58:34;101028.06;;;22.56;52.82
75692;BME280;64307;52.508;6.090;2023-07-16T09:01:02;101011.91;;;23.40;51.15
75692;BME280;64307;52.508;6.090;2023-07-16T09:03:28;101020.66;;;22.76;53.03
75692;BME280;64307;52.508;6.090;2023-07-16T09:05:54;101008.25;;;23.48;52.10
75692;BME280;64307;52.508;6.090;2023-07-16T09:08:19;101008.41;;;23.78;51.60
75692;BME280;64307;52.508;6.090;2023-07-16T09:10:53;101012.34;;;24.04;50.37
75692;BME280;64307;52.508;6.090;2023-07-16T09:13:18;101016.97;;;23.69;52.04
75692;BME280;64307;52.508;6.090;2023-07-16T09:15:44;101038.19;;;22.57;53.32
75692;BME280;64307;52.508;6.090;2023-07-16T09:18:11;101019.44;;;22.32;53.75
75692;BME280;64307;52.508;6.090;2023-07-16T09:20:39;101037.25;;;22.60;54.27
75692;BME280;64307;52.508;6.090;2023-07-16T09:23:04;101012.34;;;23.15;51.26
75692;BME280;64307;52.508;6.090;2023-07-16T09:25:30;101041.56;;;23.06;52.22
75692;BME280;64307;52.508;6.090;2023-07-16T09:27:58;101032.50;;;22.48;53.18
75692;BME280;64307;52.508;6.090;2023-07-16T09:30:23;101044.66;;;22.30;53.90
75692;BME280;64307;52.508;6.090;2023-07-16T09:32:48;101041.47;;;22.92;52.77
75692;BME280;64307;52.508;6.090;2023-07-16T09:35:15;101028.63;;;23.05;52.99
75692;BME280;64307;52.508;6.090;2023-07-16T09:37:41;101035.78;;;22.92;52.39
75692;BME280;64307;52.508;6.090;2023-07-16T09:40:08;101026.06;;;23.16;52.34
75692;BME280;64307;52.508;6.090;2023-07-16T09:42:44;101047.81;;;23.70;51.40
75692;BME280;64307;52.508;6.090;2023-07-16T09:45:16;101052.06;;;22.73;54.79
75692;BME280;64307;52.508;6.090;2023-07-16T09:47:42;101052.59;;;23.88;52.35
75692;BME280;64307;52.508;6.090;2023-07-16T09:50:08;101067.56;;;23.23;53.58
75692;BME280;64307;52.508;6.090;2023-07-16T09:52:33;101073.22;;;22.72;55.13
75692;BME280;64307;52.508;6.090;2023-07-16T09:55:02;101082.00;;;23.01;54.60
75692;BME280;64307;52.508;6.090;2023-07-16T09:57:30;101066.09;;;23.45;52.50
75692;BME280;64307;52.508;6.090;2023-07-16T10:00:00;101077.63;;;22.55;54.86
75692;BME280;64307;52.508;6.090;2023-07-16T10:02:29;101073.84;;;22.58;54.71
75692;BME280;64307;52.508;6.090;2023-07-16T10:04:54;101088.84;;;22.58;55.67
75692;BME280;64307;52.508;6.090;2023-07-16T10:07:24;101078.28;;;22.59;54.38
75692;BME280;64307;52.508;6.090;2023-07-16T10:09:55;101091.53;;;23.31;54.01
75692;BME280;64307;52.508;6.090;2023-07-16T10:12:23;101101.72;;;23.05;54.94
75692;BME280;64307;52.508;6.090;2023-07-16T10:14:54;101108.53;;;22.98;55.47
75692;BME280;64307;52.508;6.090;2023-07-16T10:17:24;101100.19;;;22.86;54.60
75692;BME280;64307;52.508;6.090;2023-07-16T10:19:58;101108.69;;;24.20;51.39
75692;BME280;64307;52.508;6.090;2023-07-16T10:22:42;101109.50;;;24.97;48.39
75692;BME280;64307;52.508;6.090;2023-07-16T10:25:08;101107.19;;;24.33;50.06
75692;BME280;64307;52.508;6.090;2023-07-16T10:27:35;101110.13;;;24.39;51.10
75692;BME280;64307;52.508;6.090;2023-07-16T10:30:01;101116.44;;;22.85;53.49
75692;BME280;64307;52.508;6.090;2023-07-16T10:32:31;101118.75;;;23.14;53.52
75692;BME280;64307;52.508;6.090;2023-07-16T10:34:57;101117.41;;;23.51;52.88
75692;BME280;64307;52.508;6.090;2023-07-16T10:37:24;101116.13;;;22.74;53.59
75692;BME280;64307;52.508;6.090;2023-07-16T10:39:52;101120.72;;;23.49;53.13
75692;BME280;64307;52.508;6.090;2023-07-16T10:42:18;101123.50;;;23.68;51.55
75692;BME280;64307;52.508;6.090;2023-07-16T10:44:44;101122.34;;;23.32;51.90
75692;BME280;64307;52.508;6.090;2023-07-16T10:47:35;101133.44;;;23.12;53.16
75692;BME280;64307;52.508;6.090;2023-07-16T10:50:03;101123.34;;;22.93;52.72
75692;BME280;64307;52.508;6.090;2023-07-16T10:52:29;101129.72;;;22.70;53.72
75692;BME280;64307;52.508;6.090;2023-07-16T10:54:54;101136.44;;;22.91;53.42
75692;BME280;64307;52.508;6.090;2023-07-16T10:57:21;101126.19;;;22.57;54.75
75692;BME280;64307;52.508;6.090;2023-07-16T10:59:46;101136.59;;;22.42;55.71
75692;BME280;64307;52.508;6.090;2023-07-16T11:02:14;101149.34;;;22.37;56.26
75692;BME280;64307;52.508;6.090;2023-07-16T11:04:40;101147.38;;;22.74;55.50
75692;BME280;64307;52.508;6.090;2023-07-16T11:07:08;101146.22;;;22.53;55.01
75692;BME280;64307;52.508;6.090;2023-07-16T11:09:35;101137.72;;;22.62;54.31
75692;BME280;64307;52.508;6.090;2023-07-16T11:12:06;101144.16;;;22.54;54.66
75692;BME280;64307;52.508;6.090;2023-07-16T11:14:32;101134.53;;;22.24;55.86
75692;BME280;64307;52.508;6.090;2023-07-16T11:17:07;101130.84;;;22.06;55.54
75692;BME280;64307;52.508;6.090;2023-07-16T11:19:33;101137.28;;;21.97;56.44
75692;BME280;64307;52.508;6.090;2023-07-16T11:22:00;101132.56;;;21.63;58.04
75692;BME280;64307;52.508;6.090;2023-07-16T11:24:26;101138.69;;;21.92;57.50
75692;BME280;64307;52.508;6.090;2023-07-16T11:26:53;101145.78;;;22.82;55.15
75692;BME280;64307;52.508;6.090;2023-07-16T11:29:19;101151.66;;;23.56;51.65
75692;BME280;64307;52.508;6.090;2023-07-16T11:31:49;101149.00;;;23.53;52.34
75692;BME280;64307;52.508;6.090;2023-07-16T11:34:14;101145.75;;;23.69;52.19
75692;BME280;64307;52.508;6.090;2023-07-16T11:36:41;101146.34;;;23.31;52.27
75692;BME280;64307;52.508;6.090;2023-07-16T11:39:06;101146.88;;;23.72;51.78
75692;BME280;64307;52.508;6.090;2023-07-16T11:41:31;101160.19;;;23.56;53.25
75692;BME280;64307;52.508;6.090;2023-07-16T11:44:00;101151.72;;;23.29;53.89
75692;BME280;64307;52.508;6.090;2023-07-16T11:46:31;101159.72;;;23.58;54.44
75692;BME280;64307;52.508;6.090;2023-07-16T11:48:57;101155.91;;;22.74;54.75
75692;BME280;64307;52.508;6.090;2023-07-16T11:51:22;101159.53;;;22.65;56.24
75692;BME280;64307;52.508;6.090;2023-07-16T11:53:47;101155.84;;;22.47;55.09
75692;BME280;64307;52.508;6.090;2023-07-16T11:56:13;101185.13;;;22.26;56.99
75692;BME280;64307;52.508;6.090;2023-07-16T11:58:38;101172.22;;;22.34;57.01
75692;BME280;64307;52.508;6.090;2023-07-16T12:01:03;101172.63;;;24.10;53.81
75692;BME280;64307;52.508;6.090;2023-07-16T12:03:29;101163.75;;;24.17;51.34
75692;BME280;64307;52.508;6.090;2023-07-16T12:05:54;101165.19;;;24.60;51.48
75692;BME280;64307;52.508;6.090;2023-07-16T12:08:19;101180.81;;;23.75;53.45
75692;BME280;64307;52.508;6.090;2023-07-16T12:10:45;101172.91;;;23.01;53.96
75692;BME280;64307;52.508;6.090;2023-07-16T12:13:10;101170.50;;;22.36;55.42
75692;BME280;64307;52.508;6.090;2023-07-16T12:15:35;101172.66;;;22.23;55.68
75692;BME280;64307;52.508;6.090;2023-07-16T12:18:00;101188.97;;;22.41;56.66
75692;BME280;64307;52.508;6.090;2023-07-16T12:20:26;101189.97;;;23.37;54.86
75692;BME280;64307;52.508;6.090;2023-07-16T12:22:51;101173.59;;;24.07;53.30
75692;BME280;64307;52.508;6.090;2023-07-16T12:25:18;101194.66;;;24.80;52.48
75692;BME280;64307;52.508;6.090;2023-07-16T12:27:44;101182.22;;;24.45;50.87
75692;BME280;64307;52.508;6.090;2023-07-16T12:30:09;101186.81;;;24.42;50.98
75692;BME280;64307;52.508;6.090;2023-07-16T12:32:35;101192.78;;;24.30;52.08
75692;BME280;64307;52.508;6.090;2023-07-16T12:35:01;101189.13;;;23.97;52.83
75692;BME280;64307;52.508;6.090;2023-07-16T12:37:26;101195.31;;;23.86;52.97
75692;BME280;64307;52.508;6.090;2023-07-16T12:39:51;101204.06;;;23.74;52.78
75692;BME280;64307;52.508;6.090;2023-07-16T12:42:17;101211.56;;;23.44;54.27
75692;BME280;64307;52.508;6.090;2023-07-16T12:44:42;101199.72;;;23.36;54.03
75692;BME280;64307;52.508;6.090;2023-07-16T12:47:07;101212.53;;;23.41;54.03
75692;BME280;64307;52.508;6.090;2023-07-16T12:49:34;101215.84;;;23.21;54.93
75692;BME280;64307;52.508;6.090;2023-07-16T12:51:59;101215.06;;;23.48;55.10